Terminal Aerodrome Forecast
Issued by NWS

Home | Current Version | Previous Version | Text Only | Print | Product List | Glossary On
Versions: 1 2 3 4 5 6 7 8 9 10 11 12 13 14 15 16 17 18 19 20 21 22 23
000
FTUS43 KJKL 200500 CCA
TAFSME
TAF COR
KSME 200548Z 2006/2106 VRB03KT 6SM BR VCTS SCT040CB BKN060
      TEMPO 2006/2007 3SM -TSRA BKN040CB
     FM200700 00000KT 5SM BR BKN050
     FM201000 00000KT 2SM BR SCT001
     FM201300 VRB04KT P6SM BKN050
     FM201800 26004KT P6SM VCTS SCT025CB BKN050=

USA.gov is the U.S. government's official web portal to all federal, state and local government web resources and services.